sensor_id;sensor_type;location;lat;lon;timestamp;temperature;humidity
27858;DHT22;16852;51.446;6.528;2022-11-20T00:00:36;3.30;99.90
27858;DHT22;16852;51.446;6.528;2022-11-20T00:02:37;3.30;99.90
27858;DHT22;16852;51.446;6.528;2022-11-20T00:04:37;3.30;99.90
27858;DHT22;16852;51.446;6.528;2022-11-20T00:06:38;3.30;99.90
27858;DHT22;16852;51.446;6.528;2022-11-20T00:08:39;3.30;99.90
27858;DHT22;16852;51.446;6.528;2022-11-20T00:10:40;3.30;99.90
27858;DHT22;16852;51.446;6.528;2022-11-20T00:12:41;3.30;99.90
27858;DHT22;16852;51.446;6.528;2022-11-20T00:14:41;3.20;99.90
27858;DHT22;16852;51.446;6.528;2022-11-20T00:16:42;3.20;99.90
27858;DHT22;16852;51.446;6.528;2022-11-20T00:18:43;3.20;99.90
27858;DHT22;16852;51.446;6.528;2022-11-20T00:20:44;3.20;99.90
27858;DHT22;16852;51.446;6.528;2022-11-20T00:22:44;3.20;99.90
27858;DHT22;16852;51.446;6.528;2022-11-20T00:24:45;3.20;99.90
27858;DHT22;16852;51.446;6.528;2022-11-20T00:26:45;3.20;99.90
27858;DHT22;16852;51.446;6.528;2022-11-20T00:28:55;3.10;99.90
27858;DHT22;16852;51.446;6.528;2022-11-20T00:31:22;3.10;99.90
27858;DHT22;16852;51.446;6.528;2022-11-20T00:33:22;3.10;99.90
27858;DHT22;16852;51.446;6.528;2022-11-20T00:35:23;3.10;99.90
27858;DHT22;16852;51.446;6.528;2022-11-20T00:37:24;3.10;99.90
27858;DHT22;16852;51.446;6.528;2022-11-20T00:39:24;3.10;99.90
27858;DHT22;16852;51.446;6.528;2022-11-20T00:41:26;3.10;99.90
27858;DHT22;16852;51.446;6.528;2022-11-20T00:43:27;3.10;99.90
27858;DHT22;16852;51.446;6.528;2022-11-20T00:45:28;3.10;99.90
27858;DHT22;16852;51.446;6.528;2022-11-20T00:47:28;3.10;99.90
27858;DHT22;16852;51.446;6.528;2022-11-20T00:49:29;3.10;99.90
27858;DHT22;16852;51.446;6.528;2022-11-20T00:51:30;3.10;99.90
27858;DHT22;16852;51.446;6.528;2022-11-20T00:53:30;3.10;99.90
27858;DHT22;16852;51.446;6.528;2022-11-20T00:55:31;3.10;99.90
27858;DHT22;16852;51.446;6.528;2022-11-20T00:57:32;3.10;99.90
27858;DHT22;16852;51.446;6.528;2022-11-20T00:59:32;3.10;99.90
27858;DHT22;16852;51.446;6.528;2022-11-20T01:01:33;3.10;99.90
27858;DHT22;16852;51.446;6.528;2022-11-20T01:03:35;3.10;99.90
27858;DHT22;16852;51.446;6.528;2022-11-20T01:05:36;3.10;99.90
27858;DHT22;16852;51.446;6.528;2022-11-20T01:07:36;3.10;99.90
27858;DHT22;16852;51.446;6.528;2022-11-20T01:09:37;3.10;99.90
27858;DHT22;16852;51.446;6.528;2022-11-20T01:11:41;3.10;99.90
27858;DHT22;16852;51.446;6.528;2022-11-20T01:13:43;3.10;99.90
27858;DHT22;16852;51.446;6.528;2022-11-20T01:15:45;3.00;99.90
27858;DHT22;16852;51.446;6.528;2022-11-20T01:17:45;3.00;99.90
27858;DHT22;16852;51.446;6.528;2022-11-20T01:19:49;3.00;99.90
27858;DHT22;16852;51.446;6.528;2022-11-20T01:21:52;3.00;99.90
27858;DHT22;16852;51.446;6.528;2022-11-20T01:23:53;3.00;99.90
27858;DHT22;16852;51.446;6.528;2022-11-20T01:25:54;3.00;99.90
27858;DHT22;16852;51.446;6.528;2022-11-20T01:27:55;3.00;99.90
27858;DHT22;16852;51.446;6.528;2022-11-20T01:29:55;3.00;99.90
27858;DHT22;16852;51.446;6.528;2022-11-20T01:31:56;3.00;99.90
27858;DHT22;16852;51.446;6.528;2022-11-20T01:33:58;3.00;99.90
27858;DHT22;16852;51.446;6.528;2022-11-20T01:36:03;3.00;99.90
27858;DHT22;16852;51.446;6.528;2022-11-20T01:38:04;3.00;99.90
27858;DHT22;16852;51.446;6.528;2022-11-20T01:40:05;2.90;99.90
27858;DHT22;16852;51.446;6.528;2022-11-20T01:42:07;3.00;99.90
27858;DHT22;16852;51.446;6.528;2022-11-20T01:47:00;2.90;99.90
27858;DHT22;16852;51.446;6.528;2022-11-20T01:49:05;3.00;99.90
27858;DHT22;16852;51.446;6.528;2022-11-20T01:51:16;2.90;99.90
27858;DHT22;16852;51.446;6.528;2022-11-20T01:53:18;2.90;99.90
27858;DHT22;16852;51.446;6.528;2022-11-20T01:55:25;2.90;99.90
27858;DHT22;16852;51.446;6.528;2022-11-20T01:57:29;2.90;99.90
27858;DHT22;16852;51.446;6.528;2022-11-20T01:59:31;2.90;99.90
27858;DHT22;16852;51.446;6.528;2022-11-20T02:01:34;2.90;99.90
27858;DHT22;16852;51.446;6.528;2022-11-20T02:03:35;2.90;99.90
27858;DHT22;16852;51.446;6.528;2022-11-20T02:07:57;2.70;99.90
27858;DHT22;16852;51.446;6.528;2022-11-20T02:09:59;2.70;99.90
27858;DHT22;16852;51.446;6.528;2022-11-20T02:12:00;2.80;99.90
27858;DHT22;16852;51.446;6.528;2022-11-20T02:14:01;2.70;99.90
27858;DHT22;16852;51.446;6.528;2022-11-20T02:16:02;2.70;99.90
27858;DHT22;16852;51.446;6.528;2022-11-20T02:18:04;2.70;99.90
27858;DHT22;16852;51.446;6.528;2022-11-20T02:20:06;2.70;99.90
27858;DHT22;16852;51.446;6.528;2022-11-20T02:22:20;2.70;99.90
27858;DHT22;16852;51.446;6.528;2022-11-20T02:24:23;2.80;99.90
27858;DHT22;16852;51.446;6.528;2022-11-20T02:26:24;2.80;99.90
27858;DHT22;16852;51.446;6.528;2022-11-20T02:28:25;2.80;99.90
27858;DHT22;16852;51.446;6.528;2022-11-20T02:30:26;2.80;99.90
27858;DHT22;16852;51.446;6.528;2022-11-20T02:32:30;2.90;99.90
27858;DHT22;16852;51.446;6.528;2022-11-20T02:34:31;2.90;99.90
27858;DHT22;16852;51.446;6.528;2022-11-20T02:36:33;2.80;99.90
27858;DHT22;16852;51.446;6.528;2022-11-20T02:38:35;2.80;99.90
27858;DHT22;16852;51.446;6.528;2022-11-20T02:40:36;2.80;99.90
27858;DHT22;16852;51.446;6.528;2022-11-20T02:42:37;2.80;99.90
27858;DHT22;16852;51.446;6.528;2022-11-20T02:44:37;2.90;99.90
27858;DHT22;16852;51.446;6.528;2022-11-20T02:46:38;2.90;99.90
27858;DHT22;16852;51.446;6.528;2022-11-20T02:48:39;2.90;99.90
27858;DHT22;16852;51.446;6.528;2022-11-20T02:50:40;2.90;99.90
27858;DHT22;16852;51.446;6.528;2022-11-20T02:52:41;2.90;99.90
27858;DHT22;16852;51.446;6.528;2022-11-20T02:54:41;2.90;99.90
27858;DHT22;16852;51.446;6.528;2022-11-20T02:56:42;3.00;99.90
27858;DHT22;16852;51.446;6.528;2022-11-20T02:58:43;3.00;99.90
27858;DHT22;16852;51.446;6.528;2022-11-20T03:00:44;3.00;99.90
27858;DHT22;16852;51.446;6.528;2022-11-20T03:02:45;3.00;99.90
27858;DHT22;16852;51.446;6.528;2022-11-20T03:04:45;3.00;99.90
27858;DHT22;16852;51.446;6.528;2022-11-20T03:06:46;3.00;99.90
27858;DHT22;16852;51.446;6.528;2022-11-20T03:08:46;3.00;99.90
27858;DHT22;16852;51.446;6.528;2022-11-20T03:10:47;3.00;99.90
27858;DHT22;16852;51.446;6.528;2022-11-20T03:12:53;3.00;99.90
27858;DHT22;16852;51.446;6.528;2022-11-20T03:14:53;3.00;99.90
27858;DHT22;16852;51.446;6.528;2022-11-20T03:16:54;3.00;99.90
27858;DHT22;16852;51.446;6.528;2022-11-20T03:18:55;3.00;99.90
27858;DHT22;16852;51.446;6.528;2022-11-20T03:20:59;3.00;99.90
27858;DHT22;16852;51.446;6.528;2022-11-20T03:23:00;3.00;99.90
27858;DHT22;16852;51.446;6.528;2022-11-20T03:25:00;3.00;99.90
27858;DHT22;16852;51.446;6.528;2022-11-20T03:27:01;2.90;99.90
27858;DHT22;16852;51.446;6.528;2022-11-20T03:29:03;3.00;99.90
27858;DHT22;16852;51.446;6.528;2022-11-20T03:31:10;3.00;99.90
27858;DHT22;16852;51.446;6.528;2022-11-20T03:33:11;3.00;99.90
27858;DHT22;16852;51.446;6.528;2022-11-20T03:35:11;2.90;99.90
27858;DHT22;16852;51.446;6.528;2022-11-20T03:37:12;3.00;99.90
27858;DHT22;16852;51.446;6.528;2022-11-20T03:39:13;3.00;99.90
27858;DHT22;16852;51.446;6.528;2022-11-20T03:41:18;3.00;99.90
27858;DHT22;16852;51.446;6.528;2022-11-20T03:43:19;3.10;99.90
27858;DHT22;16852;51.446;6.528;2022-11-20T03:45:20;3.00;99.90
27858;DHT22;16852;51.446;6.528;2022-11-20T03:47:21;3.10;99.90
27858;DHT22;16852;51.446;6.528;2022-11-20T03:49:21;3.10;99.90
27858;DHT22;16852;51.446;6.528;2022-11-20T03:51:27;3.10;99.90
27858;DHT22;16852;51.446;6.528;2022-11-20T03:53:28;3.20;99.90
27858;DHT22;16852;51.446;6.528;2022-11-20T03:55:29;3.20;99.90
27858;DHT22;16852;51.446;6.528;2022-11-20T03:57:29;3.20;99.90
27858;DHT22;16852;51.446;6.528;2022-11-20T03:59:30;3.10;99.90
27858;DHT22;16852;51.446;6.528;2022-11-20T04:01:35;3.20;99.90
27858;DHT22;16852;51.446;6.528;2022-11-20T04:03:38;3.20;99.90
27858;DHT22;16852;51.446;6.528;2022-11-20T04:05:39;3.20;99.90
27858;DHT22;16852;51.446;6.528;2022-11-20T04:07:40;3.20;99.90
27858;DHT22;16852;51.446;6.528;2022-11-20T04:09:40;3.20;99.90
27858;DHT22;16852;51.446;6.528;2022-11-20T04:11:41;3.20;99.90
27858;DHT22;16852;51.446;6.528;2022-11-20T04:13:45;3.20;99.90
27858;DHT22;16852;51.446;6.528;2022-11-20T04:15:45;3.20;99.90
27858;DHT22;16852;51.446;6.528;2022-11-20T04:17:46;3.20;99.90
27858;DHT22;16852;51.446;6.528;2022-11-20T04:19:47;3.20;99.90
27858;DHT22;16852;51.446;6.528;2022-11-20T04:21:47;3.20;99.90
27858;DHT22;16852;51.446;6.528;2022-11-20T04:23:49;3.20;99.90
27858;DHT22;16852;51.446;6.528;2022-11-20T04:25:49;3.20;99.90
27858;DHT22;16852;51.446;6.528;2022-11-20T04:27:50;3.20;99.90
27858;DHT22;16852;51.446;6.528;2022-11-20T04:29:51;3.20;99.90
27858;DHT22;16852;51.446;6.528;2022-11-20T04:31:51;3.20;99.90
27858;DHT22;16852;51.446;6.528;2022-11-20T04:33:52;3.20;99.90
27858;DHT22;16852;51.446;6.528;2022-11-20T04:35:53;3.20;99.90
27858;DHT22;16852;51.446;6.528;2022-11-20T04:37:53;3.20;99.90
27858;DHT22;16852;51.446;6.528;2022-11-20T04:39:54;3.10;99.90
27858;DHT22;16852;51.446;6.528;2022-11-20T04:41:54;3.10;99.90
27858;DHT22;16852;51.446;6.528;2022-11-20T04:44:13;3.10;99.90
27858;DHT22;16852;51.446;6.528;2022-11-20T04:46:15;3.10;99.90
27858;DHT22;16852;51.446;6.528;2022-11-20T04:48:15;3.10;99.90
27858;DHT22;16852;51.446;6.528;2022-11-20T04:50:16;3.10;99.90
27858;DHT22;16852;51.446;6.528;2022-11-20T04:52:16;3.10;99.90
27858;DHT22;16852;51.446;6.528;2022-11-20T04:54:17;3.10;99.90
27858;DHT22;16852;51.446;6.528;2022-11-20T04:56:17;3.00;99.90
27858;DHT22;16852;51.446;6.528;2022-11-20T04:58:18;3.10;99.90
27858;DHT22;16852;51.446;6.528;2022-11-20T05:00:19;3.10;99.90
27858;DHT22;16852;51.446;6.528;2022-11-20T05:02:20;3.10;99.90
27858;DHT22;16852;51.446;6.528;2022-11-20T05:04:20;3.10;99.90
27858;DHT22;16852;51.446;6.528;2022-11-20T05:06:21;3.10;99.90
27858;DHT22;16852;51.446;6.528;2022-11-20T05:08:22;3.10;99.90
27858;DHT22;16852;51.446;6.528;2022-11-20T05:10:24;3.10;99.90
27858;DHT22;16852;51.446;6.528;2022-11-20T05:12:24;3.10;99.90
27858;DHT22;16852;51.446;6.528;2022-11-20T05:14:25;3.10;99.90
27858;DHT22;16852;51.446;6.528;2022-11-20T05:16:26;3.10;99.90
27858;DHT22;16852;51.446;6.528;2022-11-20T05:18:26;3.10;99.90
27858;DHT22;16852;51.446;6.528;2022-11-20T05:20:27;3.10;99.90
27858;DHT22;16852;51.446;6.528;2022-11-20T05:22:27;3.10;99.90
27858;DHT22;16852;51.446;6.528;2022-11-20T05:24:28;3.10;99.90
27858;DHT22;16852;51.446;6.528;2022-11-20T05:26:28;3.20;99.90
27858;DHT22;16852;51.446;6.528;2022-11-20T05:28:30;3.10;99.90
27858;DHT22;16852;51.446;6.528;2022-11-20T05:30:31;3.10;99.90
27858;DHT22;16852;51.446;6.528;2022-11-20T05:32:31;3.20;99.90
27858;DHT22;16852;51.446;6.528;2022-11-20T05:34:32;3.10;99.90
27858;DHT22;16852;51.446;6.528;2022-11-20T05:36:33;3.20;99.90
27858;DHT22;16852;51.446;6.528;2022-11-20T05:38:34;3.20;99.90
27858;DHT22;16852;51.446;6.528;2022-11-20T05:40:34;3.20;99.90
27858;DHT22;16852;51.446;6.528;2022-11-20T05:42:35;3.20;99.90
27858;DHT22;16852;51.446;6.528;2022-11-20T05:44:35;3.10;99.90
27858;DHT22;16852;51.446;6.528;2022-11-20T05:46:36;3.20;99.90
27858;DHT22;16852;51.446;6.528;2022-11-20T05:48:38;3.20;99.90
27858;DHT22;16852;51.446;6.528;2022-11-20T05:50:38;3.20;99.90
27858;DHT22;16852;51.446;6.528;2022-11-20T05:52:39;3.20;99.90
27858;DHT22;16852;51.446;6.528;2022-11-20T05:54:40;3.20;99.90
27858;DHT22;16852;51.446;6.528;2022-11-20T05:56:40;3.20;99.90
27858;DHT22;16852;51.446;6.528;2022-11-20T05:58:42;3.20;99.90
27858;DHT22;16852;51.446;6.528;2022-11-20T06:00:42;3.20;99.90
27858;DHT22;16852;51.446;6.528;2022-11-20T06:02:43;3.30;99.90
27858;DHT22;16852;51.446;6.528;2022-11-20T06:04:43;3.30;99.90
27858;DHT22;16852;51.446;6.528;2022-11-20T06:06:44;3.30;99.90
27858;DHT22;16852;51.446;6.528;2022-11-20T06:08:45;3.30;99.90
27858;DHT22;16852;51.446;6.528;2022-11-20T06:10:46;3.30;99.90
27858;DHT22;16852;51.446;6.528;2022-11-20T06:12:46;3.40;99.90
27858;DHT22;16852;51.446;6.528;2022-11-20T06:14:47;3.40;99.90
27858;DHT22;16852;51.446;6.528;2022-11-20T06:16:47;3.40;99.90
27858;DHT22;16852;51.446;6.528;2022-11-20T06:18:48;3.40;99.90
27858;DHT22;16852;51.446;6.528;2022-11-20T06:20:49;3.40;99.90
27858;DHT22;16852;51.446;6.528;2022-11-20T06:22:49;3.40;99.90
27858;DHT22;16852;51.446;6.528;2022-11-20T06:24:50;3.40;99.90
27858;DHT22;16852;51.446;6.528;2022-11-20T06:26:50;3.40;99.90
27858;DHT22;16852;51.446;6.528;2022-11-20T06:28:52;3.40;99.90
27858;DHT22;16852;51.446;6.528;2022-11-20T06:30:53;3.50;99.90
27858;DHT22;16852;51.446;6.528;2022-11-20T06:32:53;3.40;99.90
27858;DHT22;16852;51.446;6.528;2022-11-20T06:34:54;3.50;99.90
27858;DHT22;16852;51.446;6.528;2022-11-20T06:36:54;3.50;99.90
27858;DHT22;16852;51.446;6.528;2022-11-20T06:38:55;3.50;99.90
27858;DHT22;16852;51.446;6.528;2022-11-20T06:40:55;3.50;99.90
27858;DHT22;16852;51.446;6.528;2022-11-20T06:42:56;3.50;99.90
27858;DHT22;16852;51.446;6.528;2022-11-20T06:44:56;3.50;99.90
27858;DHT22;16852;51.446;6.528;2022-11-20T06:46:57;3.50;99.90
27858;DHT22;16852;51.446;6.528;2022-11-20T06:48:57;3.50;99.90
27858;DHT22;16852;51.446;6.528;2022-11-20T06:50:59;3.50;99.90
27858;DHT22;16852;51.446;6.528;2022-11-20T06:53:03;3.50;99.90
27858;DHT22;16852;51.446;6.528;2022-11-20T06:55:05;3.50;99.90
27858;DHT22;16852;51.446;6.528;2022-11-20T06:57:06;3.50;99.90
27858;DHT22;16852;51.446;6.528;2022-11-20T06:59:07;3.50;99.90
27858;DHT22;16852;51.446;6.528;2022-11-20T07:01:10;3.50;99.90
27858;DHT22;16852;51.446;6.528;2022-11-20T07:03:12;3.60;99.90
27858;DHT22;16852;51.446;6.528;2022-11-20T07:05:13;3.60;99.90
27858;DHT22;16852;51.446;6.528;2022-11-20T07:07:13;3.60;99.90
27858;DHT22;16852;51.446;6.528;2022-11-20T07:09:14;3.60;99.90
27858;DHT22;16852;51.446;6.528;2022-11-20T07:11:15;3.60;99.90
27858;DHT22;16852;51.446;6.528;2022-11-20T07:13:15;3.60;99.90
27858;DHT22;16852;51.446;6.528;2022-11-20T07:15:16;3.70;99.90
27858;DHT22;16852;51.446;6.528;2022-11-20T07:17:17;3.70;99.90
27858;DHT22;16852;51.446;6.528;2022-11-20T07:19:17;3.70;99.90
27858;DHT22;16852;51.446;6.528;2022-11-20T07:21:18;3.70;99.90
27858;DHT22;16852;51.446;6.528;2022-11-20T07:23:18;3.70;99.90
27858;DHT22;16852;51.446;6.528;2022-11-20T07:25:19;3.60;99.90
27858;DHT22;16852;51.446;6.528;2022-11-20T07:27:20;3.70;99.90
27858;DHT22;16852;51.446;6.528;2022-11-20T07:29:20;3.70;99.90
27858;DHT22;16852;51.446;6.528;2022-11-20T07:31:21;3.70;99.90
27858;DHT22;16852;51.446;6.528;2022-11-20T07:33:21;3.70;99.90
27858;DHT22;16852;51.446;6.528;2022-11-20T07:35:25;3.70;99.90
27858;DHT22;16852;51.446;6.528;2022-11-20T07:37:26;3.70;99.90
27858;DHT22;16852;51.446;6.528;2022-11-20T07:39:26;3.70;99.90
27858;DHT22;16852;51.446;6.528;2022-11-20T07:41:27;3.70;99.90
27858;DHT22;16852;51.446;6.528;2022-11-20T07:43:28;3.70;99.90
27858;DHT22;16852;51.446;6.528;2022-11-20T07:45:28;3.70;99.90
27858;DHT22;16852;51.446;6.528;2022-11-20T07:47:34;3.70;99.90
27858;DHT22;16852;51.446;6.528;2022-11-20T07:49:34;3.70;99.90
27858;DHT22;16852;51.446;6.528;2022-11-20T07:51:35;3.60;99.90
27858;DHT22;16852;51.446;6.528;2022-11-20T07:53:36;3.70;99.90
27858;DHT22;16852;51.446;6.528;2022-11-20T07:55:36;3.70;99.90
27858;DHT22;16852;51.446;6.528;2022-11-20T07:57:37;3.70;99.90
27858;DHT22;16852;51.446;6.528;2022-11-20T07:59:37;3.70;99.90
27858;DHT22;16852;51.446;6.528;2022-11-20T08:01:39;3.70;99.90
27858;DHT22;16852;51.446;6.528;2022-11-20T08:03:40;3.70;99.90
27858;DHT22;16852;51.446;6.528;2022-11-20T08:05:41;3.70;99.90
27858;DHT22;16852;51.446;6.528;2022-11-20T08:07:43;3.70;99.90
27858;DHT22;16852;51.446;6.528;2022-11-20T08:09:44;3.70;99.90
27858;DHT22;16852;51.446;6.528;2022-11-20T08:11:44;3.70;99.90
27858;DHT22;16852;51.446;6.528;2022-11-20T08:14:03;3.80;99.90
27858;DHT22;16852;51.446;6.528;2022-11-20T08:16:13;3.80;99.90
27858;DHT22;16852;51.446;6.528;2022-11-20T08:18:14;3.80;99.90
27858;DHT22;16852;51.446;6.528;2022-11-20T08:20:14;3.80;99.90
27858;DHT22;16852;51.446;6.528;2022-11-20T08:22:15;3.80;99.90
27858;DHT22;16852;51.446;6.528;2022-11-20T08:24:17;3.80;99.90
27858;DHT22;16852;51.446;6.528;2022-11-20T08:26:18;3.80;99.90
27858;DHT22;16852;51.446;6.528;2022-11-20T08:28:19;3.90;99.90
27858;DHT22;16852;51.446;6.528;2022-11-20T08:30:19;4.00;99.90
27858;DHT22;16852;51.446;6.528;2022-11-20T08:32:20;4.10;99.90
27858;DHT22;16852;51.446;6.528;2022-11-20T08:34:20;4.20;99.90
27858;DHT22;16852;51.446;6.528;2022-11-20T08:36:22;4.40;99.90
27858;DHT22;16852;51.446;6.528;2022-11-20T08:38:23;4.50;99.90
27858;DHT22;16852;51.446;6.528;2022-11-20T08:40:23;4.60;99.90
27858;DHT22;16852;51.446;6.528;2022-11-20T08:42:24;4.60;99.90
27858;DHT22;16852;51.446;6.528;2022-11-20T08:44:25;4.80;99.90
27858;DHT22;16852;51.446;6.528;2022-11-20T08:46:28;4.90;99.90
27858;DHT22;16852;51.446;6.528;2022-11-20T08:48:31;5.00;99.90
27858;DHT22;16852;51.446;6.528;2022-11-20T08:50:31;5.20;99.90
27858;DHT22;16852;51.446;6.528;2022-11-20T08:52:32;5.30;99.90
27858;DHT22;16852;51.446;6.528;2022-11-20T08:54:33;5.40;99.90
27858;DHT22;16852;51.446;6.528;2022-11-20T08:56:34;5.50;99.90
27858;DHT22;16852;51.446;6.528;2022-11-20T08:58:35;5.50;99.90
27858;DHT22;16852;51.446;6.528;2022-11-20T09:00:35;5.70;99.90
27858;DHT22;16852;51.446;6.528;2022-11-20T09:02:36;5.70;99.90
27858;DHT22;16852;51.446;6.528;2022-11-20T09:04:37;5.80;99.90
27858;DHT22;16852;51.446;6.528;2022-11-20T09:06:37;5.80;99.90
27858;DHT22;16852;51.446;6.528;2022-11-20T09:08:38;5.90;99.90
27858;DHT22;16852;51.446;6.528;2022-11-20T09:10:38;6.00;99.90
27858;DHT22;16852;51.446;6.528;2022-11-20T09:12:42;6.00;99.90
27858;DHT22;16852;51.446;6.528;2022-11-20T09:14:42;6.00;99.90
27858;DHT22;16852;51.446;6.528;2022-11-20T09:16:45;6.00;99.90
27858;DHT22;16852;51.446;6.528;2022-11-20T09:18:46;6.00;99.90
27858;DHT22;16852;51.446;6.528;2022-11-20T09:20:46;6.00;99.90
27858;DHT22;16852;51.446;6.528;2022-11-20T09:22:47;5.90;99.90
27858;DHT22;16852;51.446;6.528;2022-11-20T09:24:47;6.00;99.90
27858;DHT22;16852;51.446;6.528;2022-11-20T09:26:49;6.00;99.90
27858;DHT22;16852;51.446;6.528;2022-11-20T09:28:49;5.90;99.90
27858;DHT22;16852;51.446;6.528;2022-11-20T09:30:50;6.00;99.90
27858;DHT22;16852;51.446;6.528;2022-11-20T09:32:50;5.90;99.90
27858;DHT22;16852;51.446;6.528;2022-11-20T09:34:51;5.90;99.90
27858;DHT22;16852;51.446;6.528;2022-11-20T09:36:52;5.90;99.90
27858;DHT22;16852;51.446;6.528;2022-11-20T09:38:52;5.90;99.90
27858;DHT22;16852;51.446;6.528;2022-11-20T09:41:02;5.90;99.90
27858;DHT22;16852;51.446;6.528;2022-11-20T09:43:12;5.90;99.90
27858;DHT22;16852;51.446;6.528;2022-11-20T09:45:21;5.90;99.90
27858;DHT22;16852;51.446;6.528;2022-11-20T09:49:57;5.90;99.90
27858;DHT22;16852;51.446;6.528;2022-11-20T09:54:35;5.90;99.90
27858;DHT22;16852;51.446;6.528;2022-11-20T09:56:40;5.90;99.90
27858;DHT22;16852;51.446;6.528;2022-11-20T09:58:45;5.90;99.90
27858;DHT22;16852;51.446;6.528;2022-11-20T10:00:46;5.90;99.90
27858;DHT22;16852;51.446;6.528;2022-11-20T10:03:17;5.80;99.90
27858;DHT22;16852;51.446;6.528;2022-11-20T10:05:39;5.80;99.90
27858;DHT22;16852;51.446;6.528;2022-11-20T10:09:51;5.80;99.90
27858;DHT22;16852;51.446;6.528;2022-11-20T10:12:09;5.80;99.90
27858;DHT22;16852;51.446;6.528;2022-11-20T10:14:25;5.80;99.90
27858;DHT22;16852;51.446;6.528;2022-11-20T10:18:39;5.80;99.90
27858;DHT22;16852;51.446;6.528;2022-11-20T10:29:42;5.70;99.90
27858;DHT22;16852;51.446;6.528;2022-11-20T10:31:56;5.70;99.90
27858;DHT22;16852;51.446;6.528;2022-11-20T10:34:06;5.70;99.90
27858;DHT22;16852;51.446;6.528;2022-11-20T10:36:21;5.70;99.90
27858;DHT22;16852;51.446;6.528;2022-11-20T10:38:36;5.60;99.90
27858;DHT22;16852;51.446;6.528;2022-11-20T10:40:49;5.70;99.90
27858;DHT22;16852;51.446;6.528;2022-11-20T10:42:57;5.70;99.90
27858;DHT22;16852;51.446;6.528;2022-11-20T10:45:13;5.70;99.90
27858;DHT22;16852;51.446;6.528;2022-11-20T10:47:17;5.70;99.90
27858;DHT22;16852;51.446;6.528;2022-11-20T10:49:18;5.60;99.90
27858;DHT22;16852;51.446;6.528;2022-11-20T10:56:34;5.70;99.90
27858;DHT22;16852;51.446;6.528;2022-11-20T10:58:47;5.60;99.90
27858;DHT22;16852;51.446;6.528;2022-11-20T11:00:50;5.70;99.90
27858;DHT22;16852;51.446;6.528;2022-11-20T11:02:53;5.60;99.90
27858;DHT22;16852;51.446;6.528;2022-11-20T11:04:54;5.70;99.90
27858;DHT22;16852;51.446;6.528;2022-11-20T11:07:01;5.70;99.90
27858;DHT22;16852;51.446;6.528;2022-11-20T11:09:12;5.70;99.90
27858;DHT22;16852;51.446;6.528;2022-11-20T11:11:24;5.70;99.90
27858;DHT22;16852;51.446;6.528;2022-11-20T11:13:29;5.70;99.90
27858;DHT22;16852;51.446;6.528;2022-11-20T11:15:37;5.70;99.90
27858;DHT22;16852;51.446;6.528;2022-11-20T11:17:46;5.70;99.90
27858;DHT22;16852;51.446;6.528;2022-11-20T11:20:04;5.70;99.90
27858;DHT22;16852;51.446;6.528;2022-11-20T11:22:10;5.70;99.90
27858;DHT22;16852;51.446;6.528;2022-11-20T11:24:27;5.70;99.90
27858;DHT22;16852;51.446;6.528;2022-11-20T11:26:29;5.70;99.90
27858;DHT22;16852;51.446;6.528;2022-11-20T11:28:29;5.70;99.90
27858;DHT22;16852;51.446;6.528;2022-11-20T11:30:42;5.70;99.90
27858;DHT22;16852;51.446;6.528;2022-11-20T11:32:43;5.80;99.90
27858;DHT22;16852;51.446;6.528;2022-11-20T11:34:43;5.80;99.90
27858;DHT22;16852;51.446;6.528;2022-11-20T11:36:56;5.90;99.90
27858;DHT22;16852;51.446;6.528;2022-11-20T11:38:57;5.80;99.90
27858;DHT22;16852;51.446;6.528;2022-11-20T11:40:58;5.80;99.90
27858;DHT22;16852;51.446;6.528;2022-11-20T11:43:02;5.90;99.90
27858;DHT22;16852;51.446;6.528;2022-11-20T11:45:06;5.90;99.90
27858;DHT22;16852;51.446;6.528;2022-11-20T11:47:18;5.90;99.90
27858;DHT22;16852;51.446;6.528;2022-11-20T11:49:22;5.90;99.90
27858;DHT22;16852;51.446;6.528;2022-11-20T11:51:26;5.90;99.90
27858;DHT22;16852;51.446;6.528;2022-11-20T11:53:27;5.90;99.90
27858;DHT22;16852;51.446;6.528;2022-11-20T11:55:52;5.90;99.90
27858;DHT22;16852;51.446;6.528;2022-11-20T12:09:38;5.90;99.90
27858;DHT22;16852;51.446;6.528;2022-11-20T12:12:02;5.90;99.90
27858;DHT22;16852;51.446;6.528;2022-11-20T12:16:26;5.90;99.90
27858;DHT22;16852;51.446;6.528;2022-11-20T12:18:28;5.80;99.90
27858;DHT22;16852;51.446;6.528;2022-11-20T12:20:35;5.80;99.90
27858;DHT22;16852;51.446;6.528;2022-11-20T12:23:01;5.90;99.90
27858;DHT22;16852;51.446;6.528;2022-11-20T12:25:09;5.90;99.90
27858;DHT22;16852;51.446;6.528;2022-11-20T12:34:19;5.90;99.90
27858;DHT22;16852;51.446;6.528;2022-11-20T12:37:12;5.90;99.90
27858;DHT22;16852;51.446;6.528;2022-11-20T12:39:26;5.90;99.90
27858;DHT22;16852;51.446;6.528;2022-11-20T12:41:37;5.90;99.90
27858;DHT22;16852;51.446;6.528;2022-11-20T12:44:40;5.90;99.90
27858;DHT22;16852;51.446;6.528;2022-11-20T12:49:22;5.90;99.90
27858;DHT22;16852;51.446;6.528;2022-11-20T12:51:50;5.90;99.90
27858;DHT22;16852;51.446;6.528;2022-11-20T12:58:53;5.90;99.90
27858;DHT22;16852;51.446;6.528;2022-11-20T13:03:48;5.90;99.90
27858;DHT22;16852;51.446;6.528;2022-11-20T13:08:22;6.00;99.90
27858;DHT22;16852;51.446;6.528;2022-11-20T13:10:41;6.00;99.90
27858;DHT22;16852;51.446;6.528;2022-11-20T13:12:51;6.00;99.90
27858;DHT22;16852;51.446;6.528;2022-11-20T13:15:05;6.00;99.90
27858;DHT22;16852;51.446;6.528;2022-11-20T13:17:30;6.00;99.90
27858;DHT22;16852;51.446;6.528;2022-11-20T13:19:33;6.10;99.90
27858;DHT22;16852;51.446;6.528;2022-11-20T13:21:43;6.10;99.90
27858;DHT22;16852;51.446;6.528;2022-11-20T13:23:46;6.10;99.90
27858;DHT22;16852;51.446;6.528;2022-11-20T13:25:47;6.10;99.90
27858;DHT22;16852;51.446;6.528;2022-11-20T13:27:50;6.10;99.90
27858;DHT22;16852;51.446;6.528;2022-11-20T13:30:14;6.10;99.90
27858;DHT22;16852;51.446;6.528;2022-11-20T13:32:20;6.10;99.90
27858;DHT22;16852;51.446;6.528;2022-11-20T13:34:26;6.10;99.90
27858;DHT22;16852;51.446;6.528;2022-11-20T13:36:29;6.10;99.90
27858;DHT22;16852;51.446;6.528;2022-11-20T13:38:50;6.10;99.90
27858;DHT22;16852;51.446;6.528;2022-11-20T13:40:59;6.10;99.90
27858;DHT22;16852;51.446;6.528;2022-11-20T13:45:32;6.10;99.90
27858;DHT22;16852;51.446;6.528;2022-11-20T13:47:33;6.10;99.90
27858;DHT22;16852;51.446;6.528;2022-11-20T13:49:39;6.10;99.90
27858;DHT22;16852;51.446;6.528;2022-11-20T13:51:47;6.10;99.90
27858;DHT22;16852;51.446;6.528;2022-11-20T14:01:10;6.10;99.90
27858;DHT22;16852;51.446;6.528;2022-11-20T14:03:18;6.10;99.90
27858;DHT22;16852;51.446;6.528;2022-11-20T14:05:22;6.00;99.90
27858;DHT22;16852;51.446;6.528;2022-11-20T14:07:27;6.00;99.90
27858;DHT22;16852;51.446;6.528;2022-11-20T14:09:33;6.00;99.90
27858;DHT22;16852;51.446;6.528;2022-11-20T14:11:34;6.00;99.90
27858;DHT22;16852;51.446;6.528;2022-11-20T14:13:35;6.00;99.90
27858;DHT22;16852;51.446;6.528;2022-11-20T14:15:36;6.00;99.90
27858;DHT22;16852;51.446;6.528;2022-11-20T14:17:39;6.00;99.90
27858;DHT22;16852;51.446;6.528;2022-11-20T14:19:41;6.00;99.90
27858;DHT22;16852;51.446;6.528;2022-11-20T14:21:44;6.00;99.90
27858;DHT22;16852;51.446;6.528;2022-11-20T14:23:44;6.00;99.90